QTR105 LEPA-LEBL
Flight info
| Callsign | QTR105 |
|---|---|
| Flight time | 0h 29m |
| Altitude | 18000 |
| Route | ESPOR L2 NEPAL |
| Aircraft | A320/M-SDE3FGHIRWY/LB1 |
Departure
| Time | 2026-05-04 22:29 |
|---|---|
| Airport | Palma de Mallorca Airport (LEPA) |
Arrival
| Time | 2026-05-04 22:59 |
|---|---|
| Airport | Josep Tarradellas Barcelona-El Prat Airport (LEBL) |
| Time | Latitude | Longitude | Altitude | Speed | Heading |
|---|---|---|---|---|---|
| 2026-05-04 21:59 | 39.55044 | 2.72806 | 33 ft | 0 kts | 148° |
| 2026-05-04 22:18 | 39.55057 | 2.72796 | 33 ft | 4 kts | 148° |
| 2026-05-04 22:18 | 39.55080 | 2.72778 | 32 ft | 4 kts | 147° |
| 2026-05-04 22:18 | 39.55099 | 2.72756 | 31 ft | 4 kts | 118° |
| 2026-05-04 22:19 | 39.55104 | 2.72727 | 31 ft | 3 kts | 63° |
| 2026-05-04 22:19 | 39.55102 | 2.72722 | 31 ft | 1 kts | 58° |
| 2026-05-04 22:23 | 39.55105 | 2.72729 | 31 ft | 2 kts | 58° |
| 2026-05-04 22:23 | 39.55117 | 2.72755 | 31 ft | 5 kts | 58° |
| 2026-05-04 22:24 | 39.55138 | 2.72799 | 31 ft | 7 kts | 58° |
| 2026-05-04 22:24 | 39.55168 | 2.72862 | 31 ft | 9 kts | 58° |
| 2026-05-04 22:24 | 39.55207 | 2.72945 | 31 ft | 12 kts | 58° |
| 2026-05-04 22:24 | 39.55258 | 2.73050 | 31 ft | 15 kts | 58° |
| 2026-05-04 22:25 | 39.55317 | 2.73175 | 31 ft | 18 kts | 59° |
| 2026-05-04 22:25 | 39.55385 | 2.73320 | 31 ft | 20 kts | 58° |
| 2026-05-04 22:25 | 39.55464 | 2.73485 | 31 ft | 23 kts | 58° |
| 2026-05-04 22:25 | 39.55550 | 2.73553 | 29 ft | 17 kts | 337° |
| 2026-05-04 22:26 | 39.55655 | 2.73506 | 26 ft | 15 kts | 34° |
| 2026-05-04 22:26 | 39.55715 | 2.73623 | 26 ft | 17 kts | 58° |
| 2026-05-04 22:26 | 39.55782 | 2.73767 | 28 ft | 20 kts | 59° |
| 2026-05-04 22:26 | 39.55840 | 2.73892 | 24 ft | 12 kts | 59° |
| 2026-05-04 22:27 | 39.55868 | 2.73920 | 23 ft | 4 kts | 316° |
| 2026-05-04 22:27 | 39.55894 | 2.73894 | 23 ft | 6 kts | 327° |
| 2026-05-04 22:27 | 39.55913 | 2.73879 | 23 ft | 0 kts | 329° |
| 2026-05-04 22:28 | 39.55926 | 2.73869 | 23 ft | 8 kts | 329° |
| 2026-05-04 22:28 | 39.55993 | 2.73810 | 23 ft | 12 kts | 296° |
| 2026-05-04 22:28 | 39.55969 | 2.73713 | 23 ft | 12 kts | 236° |
| 2026-05-04 22:29 | 39.55907 | 2.73584 | 23 ft | 38 kts | 238° |
| 2026-05-04 22:29 | 39.55595 | 2.72934 | 30 ft | 127 kts | 238° |
| 2026-05-04 22:29 | 39.55018 | 2.71717 | 138 ft | 180 kts | 238° |
| 2026-05-04 22:29 | 39.54355 | 2.70274 | 917 ft | 197 kts | 238° |
| 2026-05-04 22:30 | 39.53589 | 2.68728 | 1611 ft | 210 kts | 236° |
| 2026-05-04 22:30 | 39.52772 | 2.67135 | 2408 ft | 212 kts | 236° |
| 2026-05-04 22:30 | 39.51954 | 2.65547 | 3347 ft | 211 kts | 236° |
| 2026-05-04 22:30 | 39.51139 | 2.63963 | 4255 ft | 211 kts | 236° |
| 2026-05-04 22:31 | 39.50324 | 2.62370 | 5141 ft | 212 kts | 237° |
| 2026-05-04 22:31 | 39.49512 | 2.60782 | 5981 ft | 214 kts | 237° |
| 2026-05-04 22:31 | 39.48680 | 2.59154 | 6829 ft | 216 kts | 237° |
| 2026-05-04 22:31 | 39.47846 | 2.57523 | 7672 ft | 218 kts | 237° |
| 2026-05-04 22:32 | 39.47005 | 2.55875 | 8499 ft | 220 kts | 238° |
| 2026-05-04 22:32 | 39.46155 | 2.54213 | 9307 ft | 223 kts | 237° |
| 2026-05-04 22:32 | 39.45307 | 2.52519 | 10112 ft | 227 kts | 241° |
| 2026-05-04 22:32 | 39.44941 | 2.50448 | 10452 ft | 255 kts | 274° |
| 2026-05-04 22:33 | 39.45687 | 2.48263 | 10884 ft | 283 kts | 306° |
| 2026-05-04 22:33 | 39.47191 | 2.46433 | 11151 ft | 311 kts | 316° |
| 2026-05-04 22:33 | 39.49010 | 2.44695 | 11342 ft | 337 kts | 320° |
| 2026-05-04 22:33 | 39.50990 | 2.42973 | 11853 ft | 348 kts | 321° |
| 2026-05-04 22:34 | 39.53021 | 2.41222 | 12519 ft | 353 kts | 320° |
| 2026-05-04 22:34 | 39.55148 | 2.39568 | 13197 ft | 364 kts | 330° |
| 2026-05-04 22:34 | 39.57581 | 2.38527 | 13871 ft | 371 kts | 338° |
| 2026-05-04 22:34 | 39.60065 | 2.37550 | 14548 ft | 374 kts | 337° |
| 2026-05-04 22:35 | 39.62565 | 2.36538 | 15225 ft | 377 kts | 336° |
| 2026-05-04 22:35 | 39.65081 | 2.35507 | 15833 ft | 381 kts | 336° |
| 2026-05-04 22:35 | 39.67616 | 2.34464 | 16425 ft | 384 kts | 336° |
| 2026-05-04 22:35 | 39.70177 | 2.33410 | 17008 ft | 387 kts | 336° |
| 2026-05-04 22:36 | 39.72757 | 2.32350 | 17588 ft | 391 kts | 335° |
| 2026-05-04 22:36 | 39.75360 | 2.31287 | 17908 ft | 393 kts | 336° |
| 2026-05-04 22:36 | 39.77995 | 2.30213 | 17985 ft | 403 kts | 336° |
| 2026-05-04 22:36 | 39.80682 | 2.29109 | 17999 ft | 416 kts | 336° |
| 2026-05-04 22:37 | 39.83462 | 2.27973 | 18000 ft | 419 kts | 336° |
| 2026-05-04 22:37 | 39.86254 | 2.26842 | 17996 ft | 420 kts | 336° |
| 2026-05-04 22:37 | 39.89043 | 2.25713 | 17999 ft | 420 kts | 336° |
| 2026-05-04 22:37 | 39.91840 | 2.24574 | 17993 ft | 421 kts | 336° |
| 2026-05-04 22:38 | 39.94633 | 2.23433 | 17989 ft | 421 kts | 336° |
| 2026-05-04 22:38 | 39.97427 | 2.22289 | 17991 ft | 421 kts | 336° |
| 2026-05-04 22:38 | 40.00225 | 2.21142 | 17990 ft | 421 kts | 336° |
| 2026-05-04 22:38 | 40.03016 | 2.19993 | 17990 ft | 421 kts | 336° |
| 2026-05-04 22:39 | 40.05811 | 2.18842 | 17993 ft | 421 kts | 336° |
| 2026-05-04 22:39 | 40.08610 | 2.17689 | 17997 ft | 421 kts | 336° |
| 2026-05-04 22:39 | 40.11412 | 2.16537 | 17997 ft | 422 kts | 336° |
| 2026-05-04 22:39 | 40.14210 | 2.15387 | 17994 ft | 422 kts | 336° |
| 2026-05-04 22:40 | 40.17008 | 2.14234 | 18002 ft | 422 kts | 336° |
| 2026-05-04 22:40 | 40.19806 | 2.13079 | 18005 ft | 422 kts | 336° |
| 2026-05-04 22:40 | 40.22605 | 2.11920 | 17994 ft | 422 kts | 336° |
| 2026-05-04 22:40 | 40.25401 | 2.10760 | 18002 ft | 421 kts | 336° |
| 2026-05-04 22:41 | 40.28197 | 2.09599 | 18002 ft | 421 kts | 336° |
| 2026-05-04 22:41 | 40.30954 | 2.08456 | 18001 ft | 421 kts | 336° |
| 2026-05-04 22:41 | 40.33753 | 2.07297 | 17994 ft | 421 kts | 336° |
| 2026-05-04 22:41 | 40.36556 | 2.06138 | 18000 ft | 421 kts | 336° |
| 2026-05-04 22:42 | 40.39352 | 2.04980 | 17997 ft | 421 kts | 336° |
| 2026-05-04 22:42 | 40.42148 | 2.03822 | 17995 ft | 421 kts | 336° |
| 2026-05-04 22:42 | 40.44940 | 2.02664 | 17986 ft | 421 kts | 336° |
| 2026-05-04 22:42 | 40.47732 | 2.01500 | 17991 ft | 421 kts | 336° |
| 2026-05-04 22:43 | 40.50530 | 2.00330 | 17990 ft | 421 kts | 336° |
| 2026-05-04 22:43 | 40.53326 | 1.99161 | 17987 ft | 421 kts | 336° |
| 2026-05-04 22:43 | 40.56124 | 1.97992 | 17983 ft | 421 kts | 336° |
| 2026-05-04 22:43 | 40.58912 | 1.96825 | 17980 ft | 418 kts | 336° |
| 2026-05-04 22:44 | 40.61632 | 1.95692 | 17977 ft | 400 kts | 336° |
| 2026-05-04 22:44 | 40.64260 | 1.94603 | 17981 ft | 394 kts | 336° |
| 2026-05-04 22:44 | 40.66819 | 1.93454 | 17982 ft | 390 kts | 330° |
| 2026-05-04 22:44 | 40.69177 | 1.91712 | 17975 ft | 376 kts | 317° |
| 2026-05-04 22:45 | 40.71084 | 1.89567 | 17462 ft | 356 kts | 307° |
| 2026-05-04 22:45 | 40.74141 | 1.84627 | 15618 ft | 344 kts | 302° |
| 2026-05-04 22:45 | 40.75626 | 1.82172 | 14693 ft | 340 kts | 303° |
| 2026-05-04 22:46 | 40.77085 | 1.79768 | 14188 ft | 329 kts | 303° |
| 2026-05-04 22:46 | 40.78532 | 1.77394 | 13900 ft | 333 kts | 303° |
| 2026-05-04 22:46 | 40.79986 | 1.75008 | 13584 ft | 333 kts | 303° |
| 2026-05-04 22:46 | 40.81432 | 1.72626 | 13247 ft | 333 kts | 303° |
| 2026-05-04 22:47 | 40.82878 | 1.70242 | 12919 ft | 331 kts | 304° |
| 2026-05-04 22:47 | 40.84315 | 1.67878 | 12595 ft | 329 kts | 304° |
| 2026-05-04 22:47 | 40.85836 | 1.65611 | 12267 ft | 332 kts | 313° |
| 2026-05-04 22:47 | 40.87739 | 1.63848 | 11937 ft | 337 kts | 328° |
| 2026-05-04 22:48 | 40.89920 | 1.62765 | 11589 ft | 343 kts | 343° |
| 2026-05-04 22:48 | 40.92280 | 1.62302 | 11230 ft | 343 kts | 349° |
| 2026-05-04 22:48 | 40.94638 | 1.61926 | 10875 ft | 340 kts | 349° |
| 2026-05-04 22:48 | 40.96977 | 1.61551 | 10523 ft | 337 kts | 349° |
| 2026-05-04 22:49 | 40.99270 | 1.61179 | 10191 ft | 324 kts | 349° |
| 2026-05-04 22:49 | 41.01433 | 1.60830 | 9920 ft | 305 kts | 349° |
| 2026-05-04 22:49 | 41.03492 | 1.60495 | 9777 ft | 296 kts | 349° |
| 2026-05-04 22:49 | 41.05536 | 1.60154 | 9653 ft | 295 kts | 349° |
| 2026-05-04 22:50 | 41.07570 | 1.59817 | 9534 ft | 294 kts | 349° |
| 2026-05-04 22:50 | 41.08925 | 1.59719 | 9391 ft | 296 kts | 2° |
| 2026-05-04 22:50 | 41.10901 | 1.60461 | 9127 ft | 299 kts | 27° |
| 2026-05-04 22:50 | 41.12489 | 1.62234 | 8774 ft | 302 kts | 51° |
| 2026-05-04 22:51 | 41.13394 | 1.64754 | 8063 ft | 304 kts | 79° |
| 2026-05-04 22:51 | 41.13482 | 1.67517 | 7512 ft | 297 kts | 92° |
| 2026-05-04 22:51 | 41.13420 | 1.70172 | 7378 ft | 278 kts | 92° |
| 2026-05-04 22:51 | 41.13362 | 1.72670 | 7125 ft | 266 kts | 93° |
| 2026-05-04 22:52 | 41.13177 | 1.75080 | 6721 ft | 260 kts | 98° |
| 2026-05-04 22:52 | 41.12962 | 1.77445 | 6337 ft | 257 kts | 97° |
| 2026-05-04 22:52 | 41.12755 | 1.79780 | 6014 ft | 252 kts | 97° |
| 2026-05-04 22:52 | 41.12551 | 1.82104 | 6013 ft | 255 kts | 97° |
| 2026-05-04 22:53 | 41.12345 | 1.84442 | 6007 ft | 255 kts | 97° |
| 2026-05-04 22:53 | 41.12139 | 1.86778 | 6006 ft | 255 kts | 97° |
| 2026-05-04 22:53 | 41.11932 | 1.89113 | 6007 ft | 255 kts | 97° |
| 2026-05-04 22:53 | 41.11726 | 1.91446 | 5982 ft | 255 kts | 97° |
| 2026-05-04 22:54 | 41.11516 | 1.93791 | 5455 ft | 258 kts | 97° |
| 2026-05-04 22:54 | 41.11455 | 1.96193 | 4824 ft | 262 kts | 83° |
| 2026-05-04 22:54 | 41.11955 | 1.98480 | 4337 ft | 257 kts | 64° |
| 2026-05-04 22:54 | 41.12943 | 2.00412 | 3741 ft | 249 kts | 45° |
| 2026-05-04 22:55 | 41.14282 | 2.01785 | 3103 ft | 239 kts | 26° |
| 2026-05-04 22:55 | 41.15775 | 2.02563 | 2717 ft | 223 kts | 18° |
| 2026-05-04 22:55 | 41.17193 | 2.03210 | 2421 ft | 207 kts | 19° |
| 2026-05-04 22:55 | 41.18475 | 2.03793 | 2150 ft | 187 kts | 20° |
| 2026-05-04 22:56 | 41.19654 | 2.04326 | 1931 ft | 168 kts | 20° |
| 2026-05-04 22:56 | 41.20695 | 2.04800 | 1701 ft | 150 kts | 21° |
| 2026-05-04 22:56 | 41.21661 | 2.05241 | 1503 ft | 144 kts | 20° |
| 2026-05-04 22:56 | 41.22598 | 2.05667 | 1315 ft | 142 kts | 19° |
| 2026-05-04 22:57 | 41.23524 | 2.06089 | 1131 ft | 139 kts | 19° |
| 2026-05-04 22:57 | 41.24437 | 2.06506 | 946 ft | 138 kts | 18° |
| 2026-05-04 22:57 | 41.25346 | 2.06919 | 762 ft | 138 kts | 18° |
| 2026-05-04 22:57 | 41.26251 | 2.07331 | 578 ft | 138 kts | 18° |
| 2026-05-04 22:58 | 41.27150 | 2.07740 | 395 ft | 137 kts | 19° |
| 2026-05-04 22:58 | 41.28049 | 2.08150 | 220 ft | 137 kts | 19° |
| 2026-05-04 22:58 | 41.28948 | 2.08560 | 37 ft | 136 kts | 19° |
| 2026-05-04 22:58 | 41.29770 | 2.08935 | 5 ft | 98 kts | 19° |
| 2026-05-04 22:59 | 41.30127 | 2.09096 | 4 ft | 11 kts | 19° |
| 2026-05-04 22:59 | 41.30161 | 2.09111 | 3 ft | 11 kts | 19° |
| 2026-05-04 22:59 | 41.30245 | 2.09154 | 4 ft | 14 kts | 18° |
| 2026-05-04 22:59 | 41.30345 | 2.09198 | 6 ft | 16 kts | 18° |
| 2026-05-04 23:00 | 41.30451 | 2.09246 | 6 ft | 17 kts | 19° |
| 2026-05-04 23:00 | 41.30569 | 2.09278 | 9 ft | 18 kts | 346° |
| 2026-05-04 23:00 | 41.30675 | 2.09165 | 4 ft | 15 kts | 306° |
| 2026-05-04 23:00 | 41.30629 | 2.09067 | 3 ft | 16 kts | 199° |
| 2026-05-04 23:01 | 41.30513 | 2.09015 | 3 ft | 19 kts | 199° |
| 2026-05-04 23:01 | 41.30377 | 2.08952 | 3 ft | 22 kts | 199° |
| 2026-05-04 23:01 | 41.30224 | 2.08877 | 3 ft | 25 kts | 203° |
| 2026-05-04 23:01 | 41.30073 | 2.08755 | 6 ft | 26 kts | 219° |
| 2026-05-04 23:02 | 41.29922 | 2.08613 | 6 ft | 28 kts | 210° |
| 2026-05-04 23:02 | 41.29751 | 2.08457 | 3 ft | 31 kts | 216° |
| 2026-05-04 23:02 | 41.29643 | 2.08205 | 3 ft | 33 kts | 245° |
| 2026-05-04 23:02 | 41.29562 | 2.07969 | 3 ft | 19 kts | 245° |
| 2026-05-04 23:03 | 41.29491 | 2.07960 | 5 ft | 12 kts | 163° |
| 2026-05-04 23:03 | 41.29408 | 2.08011 | 3 ft | 14 kts | 154° |
| 2026-05-04 23:03 | 41.29380 | 2.07989 | 3 ft | 3 kts | 262° |
| 2026-05-04 23:03 | 41.29371 | 2.07959 | 3 ft | 5 kts | 245° |
| 2026-05-04 23:04 | 41.29368 | 2.07950 | 3 ft | 0 kts | 245° |